sensor_id;sensor_type;location;lat;lon;timestamp;pressure;altitude;pressure_sealevel;temperature;humidity
55068;BME280;40965;52.368;9.712;2023-11-22T00:00:04;101988.97;;;2.90;100.00
55068;BME280;40965;52.368;9.712;2023-11-22T00:02:35;101983.63;;;2.86;100.00
55068;BME280;40965;52.368;9.712;2023-11-22T00:05:03;101990.41;;;2.84;100.00
55068;BME280;40965;52.368;9.712;2023-11-22T00:07:31;102004.22;;;2.84;100.00
55068;BME280;40965;52.368;9.712;2023-11-22T00:10:12;102002.25;;;2.78;100.00
55068;BME280;40965;52.368;9.712;2023-11-22T00:12:39;102009.13;;;2.78;100.00
55068;BME280;40965;52.368;9.712;2023-11-22T00:15:08;102021.22;;;2.79;100.00
55068;BME280;40965;52.368;9.712;2023-11-22T00:17:37;102009.94;;;2.77;100.00
55068;BME280;40965;52.368;9.712;2023-11-22T00:20:04;102011.72;;;2.78;100.00
55068;BME280;40965;52.368;9.712;2023-11-22T00:22:37;102010.47;;;2.70;100.00
55068;BME280;40965;52.368;9.712;2023-11-22T00:25:04;102010.56;;;2.71;100.00
55068;BME280;40965;52.368;9.712;2023-11-22T00:27:31;102013.06;;;2.70;100.00
55068;BME280;40965;52.368;9.712;2023-11-22T00:29:58;102024.28;;;2.70;100.00
55068;BME280;40965;52.368;9.712;2023-11-22T00:32:25;102028.22;;;2.62;100.00
55068;BME280;40965;52.368;9.712;2023-11-22T00:34:52;102021.75;;;2.52;100.00
55068;BME280;40965;52.368;9.712;2023-11-22T00:37:18;102026.69;;;2.47;100.00
55068;BME280;40965;52.368;9.712;2023-11-22T00:39:50;102030.69;;;2.41;100.00
55068;BME280;40965;52.368;9.712;2023-11-22T00:42:20;102023.00;;;2.42;100.00
55068;BME280;40965;52.368;9.712;2023-11-22T00:44:50;102026.34;;;2.40;100.00
55068;BME280;40965;52.368;9.712;2023-11-22T00:47:19;102023.69;;;2.38;100.00
55068;BME280;40965;52.368;9.712;2023-11-22T00:49:48;102028.72;;;2.35;100.00
55068;BME280;40965;52.368;9.712;2023-11-22T00:52:24;102026.94;;;2.34;100.00
55068;BME280;40965;52.368;9.712;2023-11-22T00:54:51;102025.97;;;2.32;100.00
55068;BME280;40965;52.368;9.712;2023-11-22T00:57:24;102024.91;;;2.27;100.00
55068;BME280;40965;52.368;9.712;2023-11-22T00:59:52;102027.56;;;2.28;100.00
55068;BME280;40965;52.368;9.712;2023-11-22T01:02:19;102035.13;;;2.25;100.00
55068;BME280;40965;52.368;9.712;2023-11-22T01:04:50;102047.19;;;2.25;100.00
55068;BME280;40965;52.368;9.712;2023-11-22T01:07:18;102053.09;;;2.22;100.00
55068;BME280;40965;52.368;9.712;2023-11-22T01:09:45;102059.22;;;2.24;100.00
55068;BME280;40965;52.368;9.712;2023-11-22T01:12:12;102064.41;;;2.24;100.00
55068;BME280;40965;52.368;9.712;2023-11-22T01:14:41;102079.00;;;2.24;100.00
55068;BME280;40965;52.368;9.712;2023-11-22T01:17:09;102077.97;;;2.20;100.00
55068;BME280;40965;52.368;9.712;2023-11-22T01:19:36;102090.00;;;2.20;100.00
55068;BME280;40965;52.368;9.712;2023-11-22T01:22:03;102085.50;;;2.15;100.00
55068;BME280;40965;52.368;9.712;2023-11-22T01:24:34;102085.25;;;2.11;100.00
55068;BME280;40965;52.368;9.712;2023-11-22T01:27:03;102085.06;;;2.06;100.00
55068;BME280;40965;52.368;9.712;2023-11-22T01:29:33;102085.06;;;2.06;100.00
55068;BME280;40965;52.368;9.712;2023-11-22T01:32:00;102090.16;;;2.05;100.00
55068;BME280;40965;52.368;9.712;2023-11-22T01:34:30;102098.53;;;2.01;100.00
55068;BME280;40965;52.368;9.712;2023-11-22T01:36:57;102088.22;;;2.01;100.00
55068;BME280;40965;52.368;9.712;2023-11-22T01:39:23;102088.00;;;1.96;100.00
55068;BME280;40965;52.368;9.712;2023-11-22T01:41:51;102088.66;;;1.92;100.00
55068;BME280;40965;52.368;9.712;2023-11-22T01:44:19;102091.97;;;1.89;100.00
55068;BME280;40965;52.368;9.712;2023-11-22T01:46:46;102092.13;;;1.92;100.00
55068;BME280;40965;52.368;9.712;2023-11-22T01:49:13;102088.56;;;1.90;100.00
55068;BME280;40965;52.368;9.712;2023-11-22T01:51:46;102091.00;;;1.87;100.00
55068;BME280;40965;52.368;9.712;2023-11-22T01:54:16;102091.53;;;1.80;100.00
55068;BME280;40965;52.368;9.712;2023-11-22T01:56:48;102087.88;;;1.76;100.00
55068;BME280;40965;52.368;9.712;2023-11-22T01:59:17;102082.78;;;1.78;100.00
55068;BME280;40965;52.368;9.712;2023-11-22T02:01:48;102083.38;;;1.72;100.00
55068;BME280;40965;52.368;9.712;2023-11-22T02:04:15;102091.88;;;1.70;100.00
55068;BME280;40965;52.368;9.712;2023-11-22T02:06:45;102094.44;;;1.70;100.00
55068;BME280;40965;52.368;9.712;2023-11-22T02:09:12;102091.69;;;1.67;100.00
55068;BME280;40965;52.368;9.712;2023-11-22T02:11:44;102088.06;;;1.63;100.00
55068;BME280;40965;52.368;9.712;2023-11-22T02:14:14;102087.78;;;1.57;100.00
55068;BME280;40965;52.368;9.712;2023-11-22T02:16:41;102089.75;;;1.62;100.00
55068;BME280;40965;52.368;9.712;2023-11-22T02:19:14;102099.88;;;1.58;100.00
55068;BME280;40965;52.368;9.712;2023-11-22T02:21:42;102099.88;;;1.58;100.00
55068;BME280;40965;52.368;9.712;2023-11-22T02:24:10;102104.19;;;1.59;100.00
55068;BME280;40965;52.368;9.712;2023-11-22T02:26:37;102098.09;;;1.57;100.00
55068;BME280;40965;52.368;9.712;2023-11-22T02:29:03;102104.72;;;1.52;100.00
55068;BME280;40965;52.368;9.712;2023-11-22T02:31:32;102101.22;;;1.51;100.00
55068;BME280;40965;52.368;9.712;2023-11-22T02:34:04;102099.31;;;1.47;100.00
55068;BME280;40965;52.368;9.712;2023-11-22T02:36:31;102100.09;;;1.46;100.00
55068;BME280;40965;52.368;9.712;2023-11-22T02:39:03;102095.66;;;1.43;100.00
55068;BME280;40965;52.368;9.712;2023-11-22T02:41:31;102092.28;;;1.44;100.00
55068;BME280;40965;52.368;9.712;2023-11-22T02:44:04;102101.72;;;1.44;100.00
55068;BME280;40965;52.368;9.712;2023-11-22T02:46:32;102101.56;;;1.41;100.00
55068;BME280;40965;52.368;9.712;2023-11-22T02:49:02;102099.81;;;1.40;100.00
55068;BME280;40965;52.368;9.712;2023-11-22T02:51:31;102108.28;;;1.37;100.00
55068;BME280;40965;52.368;9.712;2023-11-22T02:54:05;102115.94;;;1.36;100.00
55068;BME280;40965;52.368;9.712;2023-11-22T02:56:32;102122.78;;;1.35;100.00
55068;BME280;40965;52.368;9.712;2023-11-22T02:58:58;102134.81;;;1.35;100.00
55068;BME280;40965;52.368;9.712;2023-11-22T03:01:25;102146.00;;;1.35;100.00
55068;BME280;40965;52.368;9.712;2023-11-22T03:03:53;102147.44;;;1.30;100.00
55068;BME280;40965;52.368;9.712;2023-11-22T03:06:20;102156.25;;;1.34;100.00
55068;BME280;40965;52.368;9.712;2023-11-22T03:08:47;102149.16;;;1.29;100.00
55068;BME280;40965;52.368;9.712;2023-11-22T03:11:14;102150.34;;;1.36;100.00
55068;BME280;40965;52.368;9.712;2023-11-22T03:13:44;102161.41;;;1.34;100.00
55068;BME280;40965;52.368;9.712;2023-11-22T03:16:11;102161.09;;;1.44;100.00
55068;BME280;40965;52.368;9.712;2023-11-22T03:18:37;102159.44;;;1.46;100.00
55068;BME280;40965;52.368;9.712;2023-11-22T03:21:05;102157.94;;;1.49;100.00
55068;BME280;40965;52.368;9.712;2023-11-22T03:23:32;102163.09;;;1.49;100.00
55068;BME280;40965;52.368;9.712;2023-11-22T03:26:00;102168.50;;;1.38;100.00
55068;BME280;40965;52.368;9.712;2023-11-22T03:28:31;102160.75;;;1.38;100.00
55068;BME280;40965;52.368;9.712;2023-11-22T03:31:00;102161.22;;;1.47;100.00
55068;BME280;40965;52.368;9.712;2023-11-22T03:33:28;102160.75;;;1.38;100.00
55068;BME280;40965;52.368;9.712;2023-11-22T03:35:55;102169.56;;;1.41;100.00
55068;BME280;40965;52.368;9.712;2023-11-22T03:38:23;102171.16;;;1.39;100.00
55068;BME280;40965;52.368;9.712;2023-11-22T03:40:49;102181.47;;;1.39;100.00
55068;BME280;40965;52.368;9.712;2023-11-22T03:43:18;102185.59;;;1.36;100.00
55068;BME280;40965;52.368;9.712;2023-11-22T03:45:45;102179.53;;;1.35;100.00
55068;BME280;40965;52.368;9.712;2023-11-22T03:48:12;102178.00;;;1.39;100.00
55068;BME280;40965;52.368;9.712;2023-11-22T03:50:39;102186.72;;;1.41;100.00
55068;BME280;40965;52.368;9.712;2023-11-22T03:53:06;102187.94;;;1.31;100.00
55068;BME280;40965;52.368;9.712;2023-11-22T03:55:35;102193.41;;;1.37;100.00
55068;BME280;40965;52.368;9.712;2023-11-22T03:58:02;102189.28;;;1.41;100.00
55068;BME280;40965;52.368;9.712;2023-11-22T04:00:31;102186.88;;;1.44;100.00
55068;BME280;40965;52.368;9.712;2023-11-22T04:02:58;102187.69;;;1.43;100.00
55068;BME280;40965;52.368;9.712;2023-11-22T04:05:27;102187.34;;;1.37;100.00
55068;BME280;40965;52.368;9.712;2023-11-22T04:08:04;102190.84;;;1.37;100.00
55068;BME280;40965;52.368;9.712;2023-11-22T04:10:33;102197.03;;;1.41;100.00
55068;BME280;40965;52.368;9.712;2023-11-22T04:13:00;102201.38;;;1.42;100.00
55068;BME280;40965;52.368;9.712;2023-11-22T04:15:27;102207.03;;;1.35;100.00
55068;BME280;40965;52.368;9.712;2023-11-22T04:18:02;102207.13;;;1.36;100.00
55068;BME280;40965;52.368;9.712;2023-11-22T04:20:32;102201.63;;;1.30;100.00
55068;BME280;40965;52.368;9.712;2023-11-22T04:23:01;102211.72;;;1.25;100.00
55068;BME280;40965;52.368;9.712;2023-11-22T04:25:28;102221.47;;;1.31;100.00
55068;BME280;40965;52.368;9.712;2023-11-22T04:28:02;102224.13;;;1.32;100.00
55068;BME280;40965;52.368;9.712;2023-11-22T04:30:32;102228.47;;;1.34;100.00
55068;BME280;40965;52.368;9.712;2023-11-22T04:33:03;102242.09;;;1.31;100.00
55068;BME280;40965;52.368;9.712;2023-11-22T04:35:32;102237.03;;;1.32;100.00
55068;BME280;40965;52.368;9.712;2023-11-22T04:38:04;102236.88;;;1.29;100.00
55068;BME280;40965;52.368;9.712;2023-11-22T04:40:31;102237.31;;;1.22;100.00
55068;BME280;40965;52.368;9.712;2023-11-22T04:42:57;102232.25;;;1.24;100.00
55068;BME280;40965;52.368;9.712;2023-11-22T04:45:30;102233.94;;;1.23;100.00
55068;BME280;40965;52.368;9.712;2023-11-22T04:47:56;102230.38;;;1.21;100.00
55068;BME280;40965;52.368;9.712;2023-11-22T04:50:23;102221.75;;;1.21;100.00
55068;BME280;40965;52.368;9.712;2023-11-22T04:52:50;102222.50;;;1.18;100.00
55068;BME280;40965;52.368;9.712;2023-11-22T04:55:17;102222.31;;;1.15;100.00
55068;BME280;40965;52.368;9.712;2023-11-22T04:57:45;102228.28;;;1.14;100.00
55068;BME280;40965;52.368;9.712;2023-11-22T05:00:12;102232.66;;;1.15;100.00
55068;BME280;40965;52.368;9.712;2023-11-22T05:02:43;102234.66;;;1.21;100.00
55068;BME280;40965;52.368;9.712;2023-11-22T05:05:15;102220.69;;;1.17;100.00
55068;BME280;40965;52.368;9.712;2023-11-22T05:07:41;102220.38;;;1.11;100.00
55068;BME280;40965;52.368;9.712;2023-11-22T05:10:13;102210.88;;;1.10;100.00
55068;BME280;40965;52.368;9.712;2023-11-22T05:12:42;102219.56;;;1.12;100.00
55068;BME280;40965;52.368;9.712;2023-11-22T05:15:10;102217.69;;;1.09;100.00
55068;BME280;40965;52.368;9.712;2023-11-22T05:17:39;102214.31;;;1.10;100.00
55068;BME280;40965;52.368;9.712;2023-11-22T05:20:07;102214.31;;;1.10;100.00
55068;BME280;40965;52.368;9.712;2023-11-22T05:22:36;102227.94;;;1.08;100.00
55068;BME280;40965;52.368;9.712;2023-11-22T05:25:04;102227.06;;;1.07;100.00
55068;BME280;40965;52.368;9.712;2023-11-22T05:27:34;102227.94;;;1.08;100.00
55068;BME280;40965;52.368;9.712;2023-11-22T05:30:01;102233.72;;;1.04;100.00
55068;BME280;40965;52.368;9.712;2023-11-22T05:32:29;102236.31;;;1.04;100.00
55068;BME280;40965;52.368;9.712;2023-11-22T05:34:56;102246.63;;;1.04;100.00
55068;BME280;40965;52.368;9.712;2023-11-22T05:37:28;102248.16;;;1.00;100.00
55068;BME280;40965;52.368;9.712;2023-11-22T05:39:56;102242.19;;;1.01;100.00
55068;BME280;40965;52.368;9.712;2023-11-22T05:42:23;102256.50;;;0.96;100.00
55068;BME280;40965;52.368;9.712;2023-11-22T05:44:50;102252.88;;;0.92;100.00
55068;BME280;40965;52.368;9.712;2023-11-22T05:47:17;102259.66;;;0.90;100.00
55068;BME280;40965;52.368;9.712;2023-11-22T05:49:44;102260.16;;;0.85;100.00
55068;BME280;40965;52.368;9.712;2023-11-22T05:52:10;102265.25;;;0.83;100.00
55068;BME280;40965;52.368;9.712;2023-11-22T05:54:37;102263.38;;;0.80;100.00
55068;BME280;40965;52.368;9.712;2023-11-22T05:57:04;102271.81;;;0.78;100.00
55068;BME280;40965;52.368;9.712;2023-11-22T05:59:31;102275.31;;;0.78;100.00
55068;BME280;40965;52.368;9.712;2023-11-22T06:02:00;102285.50;;;0.77;100.00
55068;BME280;40965;52.368;9.712;2023-11-22T06:04:27;102289.88;;;0.78;100.00
55068;BME280;40965;52.368;9.712;2023-11-22T06:06:55;102296.38;;;0.71;100.00
55068;BME280;40965;52.368;9.712;2023-11-22T06:09:22;102305.59;;;0.68;100.00
55068;BME280;40965;52.368;9.712;2023-11-22T06:11:50;102303.09;;;0.69;100.00
55068;BME280;40965;52.368;9.712;2023-11-22T06:14:21;102302.22;;;0.69;100.00
55068;BME280;40965;52.368;9.712;2023-11-22T06:16:48;102302.50;;;0.73;100.00
55068;BME280;40965;52.368;9.712;2023-11-22T06:19:16;102293.88;;;0.73;100.00
55068;BME280;40965;52.368;9.712;2023-11-22T06:21:48;102295.56;;;0.72;100.00
55068;BME280;40965;52.368;9.712;2023-11-22T06:24:15;102296.19;;;0.83;100.00
55068;BME280;40965;52.368;9.712;2023-11-22T06:26:45;102304.81;;;0.84;100.00
55068;BME280;40965;52.368;9.712;2023-11-22T06:29:12;102305.00;;;0.87;100.00
55068;BME280;40965;52.368;9.712;2023-11-22T06:31:39;102301.34;;;0.83;100.00
55068;BME280;40965;52.368;9.712;2023-11-22T06:34:06;102300.53;;;0.84;100.00
55068;BME280;40965;52.368;9.712;2023-11-22T06:36:33;102307.13;;;0.79;100.00
55068;BME280;40965;52.368;9.712;2023-11-22T06:39:00;102306.31;;;0.80;100.00
55068;BME280;40965;52.368;9.712;2023-11-22T06:41:27;102296.88;;;0.80;100.00
55068;BME280;40965;52.368;9.712;2023-11-22T06:43:57;102292.00;;;0.85;100.00
55068;BME280;40965;52.368;9.712;2023-11-22T06:46:23;102288.63;;;0.86;100.00
55068;BME280;40965;52.368;9.712;2023-11-22T06:48:50;102282.66;;;0.87;100.00
55068;BME280;40965;52.368;9.712;2023-11-22T06:51:18;102284.44;;;0.88;100.00
55068;BME280;40965;52.368;9.712;2023-11-22T06:53:45;102281.06;;;0.89;100.00
55068;BME280;40965;52.368;9.712;2023-11-22T06:56:20;102281.16;;;0.91;100.00
55068;BME280;40965;52.368;9.712;2023-11-22T06:58:49;102278.66;;;0.92;100.00
55068;BME280;40965;52.368;9.712;2023-11-22T07:01:17;102282.66;;;1.02;100.00
55068;BME280;40965;52.368;9.712;2023-11-22T07:03:43;102288.78;;;1.04;100.00
55068;BME280;40965;52.368;9.712;2023-11-22T07:06:10;102289.75;;;1.06;100.00
55068;BME280;40965;52.368;9.712;2023-11-22T07:08:37;102284.44;;;1.03;100.00
55068;BME280;40965;52.368;9.712;2023-11-22T07:11:06;102290.75;;;1.08;100.00
55068;BME280;40965;52.368;9.712;2023-11-22T07:13:35;102280.59;;;1.11;100.00
55068;BME280;40965;52.368;9.712;2023-11-22T07:16:04;102282.44;;;1.14;100.00
55068;BME280;40965;52.368;9.712;2023-11-22T07:18:32;102268.75;;;1.15;100.00
55068;BME280;40965;52.368;9.712;2023-11-22T07:21:02;102271.41;;;1.17;100.00
55068;BME280;40965;52.368;9.712;2023-11-22T07:23:30;102276.81;;;1.21;100.00
55068;BME280;40965;52.368;9.712;2023-11-22T07:25:57;102274.59;;;1.27;100.00
55068;BME280;40965;52.368;9.712;2023-11-22T07:28:24;102280.09;;;1.34;100.00
55068;BME280;40965;52.368;9.712;2023-11-22T07:30:51;102276.00;;;1.37;100.00
55068;BME280;40965;52.368;9.712;2023-11-22T07:33:18;102273.13;;;1.47;100.00
55068;BME280;40965;52.368;9.712;2023-11-22T07:35:46;102261.25;;;1.51;100.00
55068;BME280;40965;52.368;9.712;2023-11-22T07:38:13;102254.06;;;1.45;99.95
55068;BME280;40965;52.368;9.712;2023-11-22T07:40:42;102258.75;;;1.53;100.00
55068;BME280;40965;52.368;9.712;2023-11-22T07:43:11;102253.75;;;1.56;100.00
55068;BME280;40965;52.368;9.712;2023-11-22T07:45:41;102255.63;;;1.58;99.36
55068;BME280;40965;52.368;9.712;2023-11-22T07:48:10;102265.28;;;1.62;98.83
55068;BME280;40965;52.368;9.712;2023-11-22T07:50:39;102273.69;;;1.58;98.05
55068;BME280;40965;52.368;9.712;2023-11-22T07:53:12;102277.63;;;1.68;98.05
55068;BME280;40965;52.368;9.712;2023-11-22T07:55:42;102287.56;;;1.77;97.39
55068;BME280;40965;52.368;9.712;2023-11-22T07:58:09;102289.94;;;1.72;96.10
55068;BME280;40965;52.368;9.712;2023-11-22T08:00:36;102284.91;;;1.75;95.85
55068;BME280;40965;52.368;9.712;2023-11-22T08:03:03;102290.34;;;1.80;95.75
55068;BME280;40965;52.368;9.712;2023-11-22T08:05:32;102297.66;;;1.89;95.23
55068;BME280;40965;52.368;9.712;2023-11-22T08:08:04;102299.44;;;1.90;94.79
55068;BME280;40965;52.368;9.712;2023-11-22T08:10:36;102290.09;;;1.92;94.25
55068;BME280;40965;52.368;9.712;2023-11-22T08:13:03;102295.72;;;1.85;93.38
55068;BME280;40965;52.368;9.712;2023-11-22T08:15:30;102296.94;;;1.91;93.83
55068;BME280;40965;52.368;9.712;2023-11-22T08:17:58;102298.78;;;1.94;93.73
55068;BME280;40965;52.368;9.712;2023-11-22T08:20:25;102316.47;;;2.03;92.72
55068;BME280;40965;52.368;9.712;2023-11-22T08:22:52;102305.50;;;2.07;92.70
55068;BME280;40965;52.368;9.712;2023-11-22T08:25:19;102319.69;;;2.15;91.95
55068;BME280;40965;52.368;9.712;2023-11-22T08:27:46;102344.06;;;2.20;91.82
55068;BME280;40965;52.368;9.712;2023-11-22T08:30:13;102352.22;;;2.28;92.42
55068;BME280;40965;52.368;9.712;2023-11-22T08:32:45;102353.94;;;2.27;91.72
55068;BME280;40965;52.368;9.712;2023-11-22T08:35:16;102357.41;;;2.28;91.37
55068;BME280;40965;52.368;9.712;2023-11-22T08:37:43;102361.53;;;2.24;91.35
55068;BME280;40965;52.368;9.712;2023-11-22T08:40:12;102366.38;;;2.35;91.39
55068;BME280;40965;52.368;9.712;2023-11-22T08:42:39;102384.88;;;2.26;90.88
55068;BME280;40965;52.368;9.712;2023-11-22T08:45:07;102378.72;;;2.24;90.43
55068;BME280;40965;52.368;9.712;2023-11-22T08:47:37;102364.34;;;2.29;91.13
55068;BME280;40965;52.368;9.712;2023-11-22T08:50:09;102361.38;;;2.38;91.09
55068;BME280;40965;52.368;9.712;2023-11-22T08:52:40;102356.59;;;2.29;90.57
55068;BME280;40965;52.368;9.712;2023-11-22T08:55:08;102351.44;;;2.29;91.30
55068;BME280;40965;52.368;9.712;2023-11-22T08:57:35;102347.25;;;2.31;90.27
55068;BME280;40965;52.368;9.712;2023-11-22T09:00:06;102356.38;;;2.24;90.12
55068;BME280;40965;52.368;9.712;2023-11-22T09:02:37;102346.19;;;2.27;91.28
55068;BME280;40965;52.368;9.712;2023-11-22T09:05:06;102335.53;;;2.21;91.61
55068;BME280;40965;52.368;9.712;2023-11-22T09:07:34;102332.22;;;2.24;91.37
55068;BME280;40965;52.368;9.712;2023-11-22T09:10:03;102335.59;;;2.23;91.84
55068;BME280;40965;52.368;9.712;2023-11-22T09:12:36;102343.75;;;2.30;92.08
55068;BME280;40965;52.368;9.712;2023-11-22T09:15:05;102360.31;;;2.51;91.63
55068;BME280;40965;52.368;9.712;2023-11-22T09:17:38;102365.97;;;2.60;91.35
55068;BME280;40965;52.368;9.712;2023-11-22T09:20:15;102355.22;;;2.69;90.43
55068;BME280;40965;52.368;9.712;2023-11-22T09:22:43;102357.78;;;2.69;90.01
55068;BME280;40965;52.368;9.712;2023-11-22T09:25:20;102355.56;;;2.76;90.04
55068;BME280;40965;52.368;9.712;2023-11-22T09:27:51;102357.94;;;2.55;89.49
55068;BME280;40965;52.368;9.712;2023-11-22T09:30:31;102365.78;;;2.57;89.65
55068;BME280;40965;52.368;9.712;2023-11-22T09:33:02;102361.00;;;2.64;89.08
55068;BME280;40965;52.368;9.712;2023-11-22T09:35:34;102354.69;;;2.76;88.53
55068;BME280;40965;52.368;9.712;2023-11-22T09:38:03;102370.59;;;2.84;89.44
55068;BME280;40965;52.368;9.712;2023-11-22T09:40:32;102358.47;;;2.83;88.91
55068;BME280;40965;52.368;9.712;2023-11-22T09:42:59;102359.00;;;2.75;88.09
55068;BME280;40965;52.368;9.712;2023-11-22T09:45:27;102356.34;;;2.57;87.25
55068;BME280;40965;52.368;9.712;2023-11-22T09:47:55;102344.53;;;2.62;87.20
55068;BME280;40965;52.368;9.712;2023-11-22T09:50:29;102344.50;;;2.79;87.70
55068;BME280;40965;52.368;9.712;2023-11-22T09:53:05;102337.94;;;2.86;86.85
55068;BME280;40965;52.368;9.712;2023-11-22T09:55:42;102338.69;;;3.01;86.76
55068;BME280;40965;52.368;9.712;2023-11-22T09:58:12;102338.34;;;2.93;85.80
55068;BME280;40965;52.368;9.712;2023-11-22T10:00:41;102349.78;;;3.17;86.30
55068;BME280;40965;52.368;9.712;2023-11-22T10:03:09;102350.16;;;3.06;83.17
55068;BME280;40965;52.368;9.712;2023-11-22T10:05:42;102354.72;;;2.94;84.16
55068;BME280;40965;52.368;9.712;2023-11-22T10:08:11;102355.03;;;3.00;82.75
55068;BME280;40965;52.368;9.712;2023-11-22T10:10:39;102375.28;;;2.91;82.90
55068;BME280;40965;52.368;9.712;2023-11-22T10:13:08;102377.69;;;2.88;81.79
55068;BME280;40965;52.368;9.712;2023-11-22T10:15:35;102369.94;;;2.88;82.34
55068;BME280;40965;52.368;9.712;2023-11-22T10:18:01;102378.34;;;3.18;82.84
55068;BME280;40965;52.368;9.712;2023-11-22T10:20:37;102375.31;;;3.27;82.46
55068;BME280;40965;52.368;9.712;2023-11-22T10:23:14;102370.56;;;3.36;82.12
55068;BME280;40965;52.368;9.712;2023-11-22T10:25:48;102368.41;;;3.45;82.33
55068;BME280;40965;52.368;9.712;2023-11-22T10:28:21;102364.66;;;3.03;81.53
55068;BME280;40965;52.368;9.712;2023-11-22T10:30:50;102368.22;;;3.23;80.91
55068;BME280;40965;52.368;9.712;2023-11-22T10:33:18;102375.38;;;3.10;77.31
55068;BME280;40965;52.368;9.712;2023-11-22T10:35:50;102386.69;;;3.12;76.58
55068;BME280;40965;52.368;9.712;2023-11-22T10:38:20;102371.31;;;3.16;76.09
55068;BME280;40965;52.368;9.712;2023-11-22T10:40:54;102370.31;;;3.30;75.65
55068;BME280;40965;52.368;9.712;2023-11-22T10:43:24;102359.19;;;3.14;77.07
55068;BME280;40965;52.368;9.712;2023-11-22T10:45:55;102346.69;;;3.24;75.13
55068;BME280;40965;52.368;9.712;2023-11-22T10:48:23;102345.22;;;3.29;73.96
55068;BME280;40965;52.368;9.712;2023-11-22T10:50:53;102341.53;;;3.42;73.78
55068;BME280;40965;52.368;9.712;2023-11-22T10:53:35;102357.19;;;3.27;74.13
55068;BME280;40965;52.368;9.712;2023-11-22T10:56:17;102362.31;;;3.43;73.36
55068;BME280;40965;52.368;9.712;2023-11-22T10:58:55;102351.81;;;3.40;71.08
55068;BME280;40965;52.368;9.712;2023-11-22T11:01:25;102354.97;;;3.35;69.22
55068;BME280;40965;52.368;9.712;2023-11-22T11:04:09;102355.66;;;3.30;69.29
55068;BME280;40965;52.368;9.712;2023-11-22T11:06:46;102349.56;;;3.48;70.62
55068;BME280;40965;52.368;9.712;2023-11-22T11:09:18;102333.91;;;3.27;68.61
55068;BME280;40965;52.368;9.712;2023-11-22T11:11:49;102331.47;;;3.12;68.25
55068;BME280;40965;52.368;9.712;2023-11-22T11:14:16;102326.88;;;3.24;69.71
55068;BME280;40965;52.368;9.712;2023-11-22T11:16:44;102322.06;;;3.32;71.09
55068;BME280;40965;52.368;9.712;2023-11-22T11:19:19;102307.34;;;3.31;71.17
55068;BME280;40965;52.368;9.712;2023-11-22T11:21:47;102293.53;;;3.68;71.36
55068;BME280;40965;52.368;9.712;2023-11-22T11:24:17;102293.31;;;3.63;69.39
55068;BME280;40965;52.368;9.712;2023-11-22T11:26:49;102302.88;;;3.64;67.81
55068;BME280;40965;52.368;9.712;2023-11-22T11:29:34;102281.16;;;3.43;67.49
55068;BME280;40965;52.368;9.712;2023-11-22T11:32:31;102292.97;;;3.56;67.05
55068;BME280;40965;52.368;9.712;2023-11-22T11:35:00;102279.69;;;3.68;67.32
55068;BME280;40965;52.368;9.712;2023-11-22T11:37:33;102276.47;;;3.54;67.10
55068;BME280;40965;52.368;9.712;2023-11-22T11:40:10;102273.34;;;3.61;67.53
55068;BME280;40965;52.368;9.712;2023-11-22T11:42:51;102268.84;;;3.76;66.02
55068;BME280;40965;52.368;9.712;2023-11-22T11:45:23;102262.03;;;3.59;63.29
55068;BME280;40965;52.368;9.712;2023-11-22T11:47:50;102250.94;;;3.81;63.05
55068;BME280;40965;52.368;9.712;2023-11-22T11:50:17;102259.19;;;3.92;63.79
55068;BME280;40965;52.368;9.712;2023-11-22T11:52:43;102249.63;;;3.71;63.75
55068;BME280;40965;52.368;9.712;2023-11-22T11:55:10;102241.00;;;3.71;63.70
55068;BME280;40965;52.368;9.712;2023-11-22T11:57:37;102229.88;;;3.73;64.56
55068;BME280;40965;52.368;9.712;2023-11-22T12:00:04;102220.44;;;3.75;64.49
55068;BME280;40965;52.368;9.712;2023-11-22T12:02:32;102231.72;;;3.76;64.89
55068;BME280;40965;52.368;9.712;2023-11-22T12:04:59;102199.53;;;3.90;63.38
55068;BME280;40965;52.368;9.712;2023-11-22T12:07:28;102174.78;;;3.77;62.24
55068;BME280;40965;52.368;9.712;2023-11-22T12:09:55;102167.25;;;3.82;63.09
55068;BME280;40965;52.368;9.712;2023-11-22T12:12:28;102177.84;;;3.88;63.97
55068;BME280;40965;52.368;9.712;2023-11-22T12:14:59;102177.84;;;3.88;63.75
55068;BME280;40965;52.368;9.712;2023-11-22T12:17:26;102170.47;;;3.97;63.77
55068;BME280;40965;52.368;9.712;2023-11-22T12:19:53;102148.09;;;4.21;63.10
55068;BME280;40965;52.368;9.712;2023-11-22T12:22:20;102134.50;;;4.05;60.92
55068;BME280;40965;52.368;9.712;2023-11-22T12:24:47;102126.06;;;4.09;60.79
55068;BME280;40965;52.368;9.712;2023-11-22T12:27:14;102123.38;;;3.87;61.12
55068;BME280;40965;52.368;9.712;2023-11-22T12:29:40;102116.25;;;3.81;61.70
55068;BME280;40965;52.368;9.712;2023-11-22T12:32:07;102123.69;;;3.73;62.10
55068;BME280;40965;52.368;9.712;2023-11-22T12:34:34;102118.25;;;3.67;63.77
55068;BME280;40965;52.368;9.712;2023-11-22T12:37:01;102107.34;;;3.95;62.81
55068;BME280;40965;52.368;9.712;2023-11-22T12:39:28;102106.75;;;3.81;62.39
55068;BME280;40965;52.368;9.712;2023-11-22T12:41:57;102119.47;;;3.96;63.23
55068;BME280;40965;52.368;9.712;2023-11-22T12:44:24;102125.53;;;3.76;63.05
55068;BME280;40965;52.368;9.712;2023-11-22T12:46:54;102135.91;;;3.56;63.77
55068;BME280;40965;52.368;9.712;2023-11-22T12:49:26;102151.22;;;3.52;63.78
55068;BME280;40965;52.368;9.712;2023-11-22T12:51:57;102172.56;;;3.46;65.09
55068;BME280;40965;52.368;9.712;2023-11-22T12:54:23;102173.59;;;3.30;65.33
55068;BME280;40965;52.368;9.712;2023-11-22T12:56:50;102154.31;;;3.43;66.61
55068;BME280;40965;52.368;9.712;2023-11-22T12:59:19;102137.41;;;3.31;67.02
55068;BME280;40965;52.368;9.712;2023-11-22T13:01:48;102125.22;;;3.48;66.85
55068;BME280;40965;52.368;9.712;2023-11-22T13:04:14;102129.22;;;3.61;67.02